createdAt,value
2024-03-09T00:05:22.041Z,-1.19
2024-03-09T00:12:05.517Z,-1.13
2024-03-09T00:18:47.917Z,-1.11
2024-03-09T00:25:30.751Z,-1.08
2024-03-09T00:32:13.684Z,-1.12
2024-03-09T00:38:56.312Z,-1.17
2024-03-09T00:45:38.954Z,-1.18
2024-03-09T00:52:21.728Z,-1.15
2024-03-09T00:59:06.026Z,-1.10
2024-03-09T01:05:49.879Z,-1.06
2024-03-09T01:12:33.312Z,-1.03
2024-03-09T01:19:15.709Z,-1.05
2024-03-09T01:25:58.912Z,-1.03
2024-03-09T01:32:41.660Z,-1.02
2024-03-09T01:39:24.757Z,-0.99
2024-03-09T01:46:11.229Z,-0.97
2024-03-09T01:52:54.762Z,-0.99
2024-03-09T01:59:38.752Z,-1.00
2024-03-09T02:06:23.150Z,-0.99
2024-03-09T02:13:05.522Z,-0.97
2024-03-09T02:19:48.703Z,-0.93
2024-03-09T02:26:32.815Z,-0.90
2024-03-09T02:33:15.510Z,-0.88
2024-03-09T02:39:57.782Z,-0.90
2024-03-09T02:46:41.092Z,-0.90
2024-03-09T02:53:23.498Z,-0.90
2024-03-09T03:00:09.016Z,-0.88
2024-03-09T03:06:51.685Z,-0.85
2024-03-09T03:13:34.942Z,-0.84
2024-03-09T03:20:20.351Z,-0.83
2024-03-09T03:27:02.538Z,-0.84
2024-03-09T03:33:45.374Z,-0.80
2024-03-09T03:40:28.057Z,-0.78
2024-03-09T03:47:10.780Z,-0.74
2024-03-09T03:53:53.096Z,-0.71
2024-03-09T04:00:35.668Z,-0.70
2024-03-09T04:07:17.909Z,-0.68
2024-03-09T04:14:03.258Z,-0.69
2024-03-09T04:20:45.528Z,-0.69
2024-03-09T04:27:27.813Z,-0.66
2024-03-09T04:34:13.089Z,-0.64
2024-03-09T04:40:55.441Z,-0.60
2024-03-09T04:47:39.066Z,-0.57
2024-03-09T04:54:21.592Z,-0.55
2024-03-09T05:01:04.168Z,-0.53
2024-03-09T05:07:51.567Z,-0.51
2024-03-09T05:14:33.931Z,-0.51
2024-03-09T05:21:17.838Z,-0.51
2024-03-09T05:28:00.344Z,-0.51
2024-03-09T05:34:43.538Z,-0.49
2024-03-09T05:41:26.099Z,-0.47
2024-03-09T05:48:10.456Z,-0.46
2024-03-09T05:54:53.006Z,-0.45
2024-03-09T06:01:35.380Z,-0.45
2024-03-09T06:08:17.811Z,-0.45
2024-03-09T06:15:00.158Z,-0.44
2024-03-09T06:21:42.455Z,-0.42
2024-03-09T06:28:24.787Z,-0.40
2024-03-09T06:35:08.286Z,-0.39
2024-03-09T06:41:53.754Z,-0.43
2024-03-09T06:48:36.617Z,-0.43
2024-03-09T06:55:20.647Z,-0.43
2024-03-09T07:02:04.635Z,-0.40
2024-03-09T07:08:46.971Z,-0.34
2024-03-09T07:15:31.879Z,-0.33
2024-03-09T07:22:15.291Z,-0.30
2024-03-09T07:28:57.625Z,-0.28
2024-03-09T07:35:40.219Z,-0.31
2024-03-09T07:42:22.533Z,-0.28
2024-03-09T07:49:05.149Z,-0.21
2024-03-09T07:55:48.187Z,-0.12
2024-03-09T08:02:30.630Z,-0.04
2024-03-09T08:09:18.955Z,0.05
2024-03-09T08:16:08.708Z,0.12
2024-03-09T08:22:55.798Z,0.21
2024-03-09T08:29:38.206Z,0.28
2024-03-09T08:36:23.995Z,0.42
2024-03-09T08:43:08.019Z,0.53
2024-03-09T08:49:50.970Z,0.67
2024-03-09T08:56:33.295Z,0.68
2024-03-09T09:03:18.818Z,0.76
2024-03-09T09:10:01.190Z,0.93
2024-03-09T09:16:48.235Z,1.03
2024-03-09T09:23:30.537Z,1.14
2024-03-09T09:30:13.696Z,1.15
2024-03-09T09:36:56.560Z,1.19
2024-03-09T09:43:39.978Z,1.21
2024-03-09T09:50:24.152Z,1.36
2024-03-09T09:57:06.581Z,1.45
2024-03-09T10:03:49.499Z,1.57
2024-03-09T10:10:36.795Z,1.80
2024-03-09T10:17:22.526Z,1.96
2024-03-09T10:24:08.402Z,2.08
2024-03-09T10:30:50.767Z,2.34
2024-03-09T10:37:34.020Z,2.50
2024-03-09T10:44:16.724Z,2.72
2024-03-09T10:51:22.398Z,2.94
2024-03-09T10:58:07.256Z,3.13
2024-03-09T11:04:53.946Z,3.35
2024-03-09T11:11:37.000Z,3.60
2024-03-09T11:18:24.194Z,3.79
2024-03-09T11:25:15.385Z,4.04
2024-03-09T11:32:11.357Z,4.31
2024-03-09T11:38:56.983Z,4.56
2024-03-09T11:45:41.725Z,4.90
2024-03-09T11:52:27.532Z,5.21
2024-03-09T11:59:12.278Z,5.52
2024-03-09T12:05:56.473Z,5.72
2024-03-09T12:12:43.260Z,6.02
2024-03-09T12:19:26.511Z,6.36
2024-03-09T12:26:12.167Z,6.65
2024-03-09T12:32:57.634Z,6.84
2024-03-09T12:39:47.786Z,6.82
2024-03-09T12:46:34.139Z,7.14
2024-03-09T12:53:16.932Z,7.47
2024-03-09T13:00:00.171Z,7.62
2024-03-09T13:06:43.344Z,7.94
2024-03-09T13:13:26.381Z,8.26
2024-03-09T13:20:12.822Z,8.58
2024-03-09T13:26:57.477Z,8.71
2024-03-09T13:33:43.186Z,8.91
2024-03-09T13:40:28.168Z,9.18
2024-03-09T13:47:13.455Z,9.40
2024-03-09T13:53:56.525Z,9.53
2024-03-09T14:00:39.233Z,9.54
2024-03-09T14:07:23.119Z,9.57
2024-03-09T14:14:10.475Z,9.65
2024-03-09T14:20:53.642Z,9.77
2024-03-09T14:27:37.213Z,9.85
2024-03-09T14:34:21.934Z,9.81
2024-03-09T14:41:10.867Z,9.76
2024-03-09T14:48:00.911Z,9.61
2024-03-09T14:54:44.236Z,9.33
2024-03-09T15:01:27.303Z,9.05
2024-03-09T15:08:13.114Z,8.68
2024-03-09T15:14:55.875Z,8.21
2024-03-09T15:21:38.664Z,7.76
2024-03-09T15:28:21.194Z,7.50
2024-03-09T15:35:03.783Z,7.07
2024-03-09T15:41:46.123Z,6.47
2024-03-09T15:48:30.281Z,5.91
2024-03-09T15:55:19.312Z,5.39
2024-03-09T16:02:01.744Z,4.83
2024-03-09T16:08:44.462Z,4.30
2024-03-09T16:15:30.308Z,3.74
2024-03-09T16:22:12.686Z,3.28
2024-03-09T16:28:55.131Z,2.84
2024-03-09T16:35:41.787Z,2.43
2024-03-09T16:42:27.555Z,2.08
2024-03-09T16:49:13.004Z,1.83
2024-03-09T16:55:58.480Z,1.63
2024-03-09T17:02:43.435Z,1.49
2024-03-09T17:09:25.862Z,1.40
2024-03-09T17:16:12.392Z,1.31
2024-03-09T17:23:03.658Z,1.26
2024-03-09T17:29:49.395Z,1.22
2024-03-09T17:36:31.900Z,1.20
2024-03-09T17:43:14.644Z,1.17
2024-03-09T17:49:57.312Z,1.16
2024-03-09T17:56:39.988Z,1.16
2024-03-09T18:03:22.776Z,1.18
2024-03-09T18:10:10.545Z,1.18
2024-03-09T18:17:04.352Z,1.18
2024-03-09T18:23:48.256Z,1.17
2024-03-09T18:30:32.795Z,1.21
2024-03-09T18:37:16.265Z,1.21
2024-03-09T18:44:00.443Z,1.26
2024-03-09T18:50:46.081Z,1.25
2024-03-09T18:57:28.772Z,1.25
2024-03-09T19:04:11.198Z,1.26
2024-03-09T19:10:54.921Z,1.26
2024-03-09T19:17:51.594Z,1.24
2024-03-09T19:24:35.979Z,1.19
2024-03-09T19:31:18.404Z,1.19
2024-03-09T19:38:03.698Z,1.13
2024-03-09T19:44:51.535Z,1.09
2024-03-09T19:51:33.820Z,1.06
2024-03-09T19:58:16.697Z,1.03
2024-03-09T20:04:59.113Z,0.99
2024-03-09T20:11:46.717Z,0.92
2024-03-09T20:18:29.605Z,0.86
2024-03-09T20:25:13.282Z,0.80
2024-03-09T20:31:57.832Z,0.73
2024-03-09T20:38:43.569Z,0.66
2024-03-09T20:45:26.189Z,0.60
2024-03-09T20:52:08.748Z,0.55
2024-03-09T20:58:51.238Z,0.51
2024-03-09T21:05:35.567Z,0.45
2024-03-09T21:12:18.540Z,0.40
2024-03-09T21:19:02.022Z,0.36
2024-03-09T21:25:44.959Z,0.33
2024-03-09T21:32:27.571Z,0.30
2024-03-09T21:39:16.346Z,0.27
2024-03-09T21:45:59.432Z,0.22
2024-03-09T21:52:42.420Z,0.18
2024-03-09T21:59:29.755Z,0.14
2024-03-09T22:06:12.612Z,0.10
2024-03-09T22:12:57.231Z,0.05
2024-03-09T22:19:40.419Z,-0.02
2024-03-09T22:26:23.360Z,-0.08
2024-03-09T22:33:05.954Z,-0.12
2024-03-09T22:39:48.711Z,-0.18
2024-03-09T22:46:32.022Z,-0.23
2024-03-09T22:53:15.834Z,-0.29
2024-03-09T22:59:58.573Z,-0.30
2024-03-09T23:06:43.790Z,-0.33
2024-03-09T23:13:34.627Z,-0.36
2024-03-09T23:20:18.366Z,-0.39
2024-03-09T23:27:02.904Z,-0.44
2024-03-09T23:33:45.882Z,-0.46
2024-03-09T23:40:29.747Z,-0.48
2024-03-09T23:47:14.861Z,-0.50
2024-03-09T23:53:58.739Z,-0.54
